sensor_id;sensor_type;location;lat;lon;timestamp;pressure;altitude;pressure_sealevel;temperature
67829;BMP280;54626;45.436;10.942;2023-07-13T00:01:32;100624.34;;;23.11
67829;BMP280;54626;45.436;10.942;2023-07-13T00:03:59;100598.22;;;22.83
67829;BMP280;54626;45.436;10.942;2023-07-13T00:06:26;100544.94;;;22.76
67829;BMP280;54626;45.436;10.942;2023-07-13T00:08:59;100477.75;;;22.59
67829;BMP280;54626;45.436;10.942;2023-07-13T00:11:26;100456.69;;;22.60
67829;BMP280;54626;45.436;10.942;2023-07-13T00:13:52;100430.75;;;22.64
67829;BMP280;54626;45.436;10.942;2023-07-13T00:16:20;100389.91;;;22.65
67829;BMP280;54626;45.436;10.942;2023-07-13T00:18:46;100365.81;;;22.62
67829;BMP280;54626;45.436;10.942;2023-07-13T00:21:13;100346.69;;;22.60
67829;BMP280;54626;45.436;10.942;2023-07-13T00:23:41;100318.69;;;22.64
67829;BMP280;54626;45.436;10.942;2023-07-13T00:26:10;100302.66;;;22.53
67829;BMP280;54626;45.436;10.942;2023-07-13T00:28:38;100290.22;;;22.58
67829;BMP280;54626;45.436;10.942;2023-07-13T00:31:05;100275.38;;;22.58
67829;BMP280;54626;45.436;10.942;2023-07-13T00:33:34;100280.50;;;22.61
67829;BMP280;54626;45.436;10.942;2023-07-13T00:36:02;100276.00;;;22.56
67829;BMP280;54626;45.436;10.942;2023-07-13T00:38:29;100260.09;;;22.47
67829;BMP280;54626;45.436;10.942;2023-07-13T00:41:03;100255.59;;;22.42
67829;BMP280;54626;45.436;10.942;2023-07-13T00:43:30;100249.50;;;22.48
67829;BMP280;54626;45.436;10.942;2023-07-13T00:46:29;100241.38;;;22.40
67829;BMP280;54626;45.436;10.942;2023-07-13T00:48:59;100252.03;;;22.42
67829;BMP280;54626;45.436;10.942;2023-07-13T00:51:31;100248.81;;;22.34
67829;BMP280;54626;45.436;10.942;2023-07-13T00:54:14;100260.41;;;22.40
67829;BMP280;54626;45.436;10.942;2023-07-13T00:56:59;100268.03;;;22.37
67829;BMP280;54626;45.436;10.942;2023-07-13T00:59:31;100269.28;;;22.34
67829;BMP280;54626;45.436;10.942;2023-07-13T01:01:58;100260.00;;;22.32
67829;BMP280;54626;45.436;10.942;2023-07-13T01:04:25;100266.38;;;22.32
67829;BMP280;54626;45.436;10.942;2023-07-13T01:06:53;100264.31;;;22.20
67829;BMP280;54626;45.436;10.942;2023-07-13T01:09:20;100270.56;;;22.31
67829;BMP280;54626;45.436;10.942;2023-07-13T01:11:47;100284.25;;;22.23
67829;BMP280;54626;45.436;10.942;2023-07-13T01:14:14;100298.03;;;22.18
67829;BMP280;54626;45.436;10.942;2023-07-13T01:16:50;100299.41;;;22.17
67829;BMP280;54626;45.436;10.942;2023-07-13T01:19:36;100310.03;;;21.78
67829;BMP280;54626;45.436;10.942;2023-07-13T01:22:15;100313.88;;;21.84
67829;BMP280;54626;45.436;10.942;2023-07-13T01:24:45;100318.28;;;21.87
67829;BMP280;54626;45.436;10.942;2023-07-13T01:27:14;100313.38;;;22.01
67829;BMP280;54626;45.436;10.942;2023-07-13T01:29:42;100327.66;;;22.05
67829;BMP280;54626;45.436;10.942;2023-07-13T01:32:13;100343.22;;;22.06
67829;BMP280;54626;45.436;10.942;2023-07-13T01:34:39;100347.28;;;22.17
67829;BMP280;54626;45.436;10.942;2023-07-13T01:37:09;100346.34;;;22.25
67829;BMP280;54626;45.436;10.942;2023-07-13T01:39:36;100352.59;;;22.37
67829;BMP280;54626;45.436;10.942;2023-07-13T01:44:49;100332.44;;;22.43
67829;BMP280;54626;45.436;10.942;2023-07-13T01:47:16;100343.38;;;22.50
67829;BMP280;54626;45.436;10.942;2023-07-13T01:49:43;100347.75;;;22.53
67829;BMP280;54626;45.436;10.942;2023-07-13T01:52:12;100335.72;;;22.53
67829;BMP280;54626;45.436;10.942;2023-07-13T01:54:38;100343.47;;;22.52
67829;BMP280;54626;45.436;10.942;2023-07-13T01:57:05;100339.41;;;22.42
67829;BMP280;54626;45.436;10.942;2023-07-13T01:59:32;100357.88;;;22.45
67829;BMP280;54626;45.436;10.942;2023-07-13T02:02:09;100351.72;;;22.48
67829;BMP280;54626;45.436;10.942;2023-07-13T02:04:36;100360.50;;;22.54
67829;BMP280;54626;45.436;10.942;2023-07-13T02:07:09;100366.16;;;22.54
67829;BMP280;54626;45.436;10.942;2023-07-13T02:09:35;100371.47;;;22.48
67829;BMP280;54626;45.436;10.942;2023-07-13T02:12:02;100369.69;;;22.41
67829;BMP280;54626;45.436;10.942;2023-07-13T02:14:29;100364.06;;;22.41
67829;BMP280;54626;45.436;10.942;2023-07-13T02:16:56;100350.69;;;22.42
67829;BMP280;54626;45.436;10.942;2023-07-13T02:19:22;100351.53;;;22.44
67829;BMP280;54626;45.436;10.942;2023-07-13T02:21:49;100352.25;;;22.45
67829;BMP280;54626;45.436;10.942;2023-07-13T02:24:59;100353.81;;;22.48
67829;BMP280;54626;45.436;10.942;2023-07-13T02:27:26;100359.84;;;22.56
67829;BMP280;54626;45.436;10.942;2023-07-13T02:29:53;100364.69;;;22.53
67829;BMP280;54626;45.436;10.942;2023-07-13T02:32:20;100363.63;;;22.60
67829;BMP280;54626;45.436;10.942;2023-07-13T02:34:46;100356.91;;;22.67
67829;BMP280;54626;45.436;10.942;2023-07-13T02:37:13;100360.00;;;22.73
67829;BMP280;54626;45.436;10.942;2023-07-13T02:39:39;100361.19;;;22.68
67829;BMP280;54626;45.436;10.942;2023-07-13T02:42:06;100366.16;;;22.54
67829;BMP280;54626;45.436;10.942;2023-07-13T02:44:33;100365.50;;;22.56
67829;BMP280;54626;45.436;10.942;2023-07-13T02:46:59;100369.16;;;22.45
67829;BMP280;54626;45.436;10.942;2023-07-13T02:49:26;100367.84;;;22.32
67829;BMP280;54626;45.436;10.942;2023-07-13T02:51:53;100371.81;;;22.27
67829;BMP280;54626;45.436;10.942;2023-07-13T02:54:19;100382.47;;;22.16
67829;BMP280;54626;45.436;10.942;2023-07-13T02:56:46;100390.59;;;22.10
67829;BMP280;54626;45.436;10.942;2023-07-13T02:59:13;100386.03;;;22.03
67829;BMP280;54626;45.436;10.942;2023-07-13T03:01:39;100388.72;;;22.01
67829;BMP280;54626;45.436;10.942;2023-07-13T03:04:06;100391.13;;;22.06
67829;BMP280;54626;45.436;10.942;2023-07-13T03:06:33;100382.53;;;22.04
67829;BMP280;54626;45.436;10.942;2023-07-13T03:09:00;100394.66;;;22.07
67829;BMP280;54626;45.436;10.942;2023-07-13T03:11:26;100378.47;;;22.07
67829;BMP280;54626;45.436;10.942;2023-07-13T03:13:54;100392.06;;;22.11
67829;BMP280;54626;45.436;10.942;2023-07-13T03:16:21;100399.66;;;22.08
67829;BMP280;54626;45.436;10.942;2023-07-13T03:18:48;100414.88;;;22.03
67829;BMP280;54626;45.436;10.942;2023-07-13T03:21:15;100423.16;;;22.13
67829;BMP280;54626;45.436;10.942;2023-07-13T03:23:41;100412.59;;;22.00
67829;BMP280;54626;45.436;10.942;2023-07-13T03:26:12;100410.50;;;22.00
67829;BMP280;54626;45.436;10.942;2023-07-13T03:28:40;100412.59;;;22.00
67829;BMP280;54626;45.436;10.942;2023-07-13T03:31:14;100427.84;;;22.08
67829;BMP280;54626;45.436;10.942;2023-07-13T03:33:41;100431.63;;;22.13
67829;BMP280;54626;45.436;10.942;2023-07-13T03:36:16;100437.91;;;22.24
67829;BMP280;54626;45.436;10.942;2023-07-13T03:38:51;100442.28;;;22.27
67829;BMP280;54626;45.436;10.942;2023-07-13T03:41:18;100435.50;;;22.32
67829;BMP280;54626;45.436;10.942;2023-07-13T03:43:45;100441.00;;;22.44
67829;BMP280;54626;45.436;10.942;2023-07-13T03:46:15;100442.59;;;22.47
67829;BMP280;54626;45.436;10.942;2023-07-13T03:48:44;100441.41;;;22.52
67829;BMP280;54626;45.436;10.942;2023-07-13T03:51:12;100450.75;;;22.54
67829;BMP280;54626;45.436;10.942;2023-07-13T03:53:42;100447.06;;;22.52
67829;BMP280;54626;45.436;10.942;2023-07-13T03:56:09;100442.16;;;22.66
67829;BMP280;54626;45.436;10.942;2023-07-13T03:58:40;100450.50;;;22.64
67829;BMP280;54626;45.436;10.942;2023-07-13T04:01:11;100445.16;;;22.70
67829;BMP280;54626;45.436;10.942;2023-07-13T04:03:38;100456.31;;;22.81
67829;BMP280;54626;45.436;10.942;2023-07-13T04:06:07;100461.97;;;22.81
67829;BMP280;54626;45.436;10.942;2023-07-13T04:08:36;100456.31;;;22.81
67829;BMP280;54626;45.436;10.942;2023-07-13T04:11:04;100448.06;;;22.85
67829;BMP280;54626;45.436;10.942;2023-07-13T04:14:02;100453.72;;;22.85
67829;BMP280;54626;45.436;10.942;2023-07-13T04:16:29;100451.31;;;22.79
67829;BMP280;54626;45.436;10.942;2023-07-13T04:18:56;100450.69;;;22.81
67829;BMP280;54626;45.436;10.942;2023-07-13T04:21:39;100436.78;;;22.85
67829;BMP280;54626;45.436;10.942;2023-07-13T04:24:05;100443.47;;;22.91
67829;BMP280;54626;45.436;10.942;2023-07-13T04:26:32;100450.78;;;22.96
67829;BMP280;54626;45.436;10.942;2023-07-13T04:29:30;100461.31;;;22.96
67829;BMP280;54626;45.436;10.942;2023-07-13T04:31:57;100458.97;;;23.06
67829;BMP280;54626;45.436;10.942;2023-07-13T04:34:23;100444.78;;;23.04
67829;BMP280;54626;45.436;10.942;2023-07-13T04:36:53;100460.84;;;23.15
67829;BMP280;54626;45.436;10.942;2023-07-13T04:39:19;100466.66;;;23.32
67829;BMP280;54626;45.436;10.942;2023-07-13T04:41:46;100470.41;;;23.36
67829;BMP280;54626;45.436;10.942;2023-07-13T04:44:13;100461.94;;;23.36
67829;BMP280;54626;45.436;10.942;2023-07-13T04:46:39;100464.41;;;23.44
67829;BMP280;54626;45.436;10.942;2023-07-13T04:49:21;100471.16;;;23.52
67829;BMP280;54626;45.436;10.942;2023-07-13T04:55:11;100483.97;;;23.69
67829;BMP280;54626;45.436;10.942;2023-07-13T04:57:37;100483.75;;;23.80
67829;BMP280;54626;45.436;10.942;2023-07-13T05:00:04;100476.16;;;23.83
67829;BMP280;54626;45.436;10.942;2023-07-13T05:06:00;100480.06;;;24.06
67829;BMP280;54626;45.436;10.942;2023-07-13T05:08:27;100503.13;;;24.16
67829;BMP280;54626;45.436;10.942;2023-07-13T05:10:54;100500.63;;;24.39
67829;BMP280;54626;45.436;10.942;2023-07-13T05:13:21;100486.47;;;24.55
67829;BMP280;54626;45.436;10.942;2023-07-13T05:18:20;100485.53;;;24.66
67829;BMP280;54626;45.436;10.942;2023-07-13T05:20:56;100483.41;;;24.66
67829;BMP280;54626;45.436;10.942;2023-07-13T05:23:57;100482.91;;;24.54
67829;BMP280;54626;45.436;10.942;2023-07-13T05:26:27;100479.97;;;24.52
67829;BMP280;54626;45.436;10.942;2023-07-13T05:28:54;100477.09;;;24.50
67829;BMP280;54626;45.436;10.942;2023-07-13T05:31:21;100477.97;;;24.55
67829;BMP280;54626;45.436;10.942;2023-07-13T05:33:47;100479.00;;;24.46
67829;BMP280;54626;45.436;10.942;2023-07-13T05:36:15;100480.38;;;24.45
67829;BMP280;54626;45.436;10.942;2023-07-13T05:38:42;100487.41;;;24.44
67829;BMP280;54626;45.436;10.942;2023-07-13T05:41:08;100485.97;;;24.43
67829;BMP280;54626;45.436;10.942;2023-07-13T05:43:41;100487.13;;;24.38
67829;BMP280;54626;45.436;10.942;2023-07-13T05:46:21;100482.09;;;24.52
67829;BMP280;54626;45.436;10.942;2023-07-13T05:48:49;100485.91;;;24.58
67829;BMP280;54626;45.436;10.942;2023-07-13T05:51:16;100489.56;;;24.61
67829;BMP280;54626;45.436;10.942;2023-07-13T05:56:49;100483.78;;;24.91
67829;BMP280;54626;45.436;10.942;2023-07-13T05:59:17;100481.78;;;25.11
67829;BMP280;54626;45.436;10.942;2023-07-13T06:01:44;100465.53;;;25.29
67829;BMP280;54626;45.436;10.942;2023-07-13T06:04:10;100460.59;;;25.30
67829;BMP280;54626;45.436;10.942;2023-07-13T06:06:42;100459.81;;;25.27
67829;BMP280;54626;45.436;10.942;2023-07-13T06:09:21;100472.97;;;25.21
67829;BMP280;54626;45.436;10.942;2023-07-13T06:11:48;100484.22;;;25.01
67829;BMP280;54626;45.436;10.942;2023-07-13T06:14:17;100485.09;;;24.88
67829;BMP280;54626;45.436;10.942;2023-07-13T06:16:44;100499.78;;;24.85
67829;BMP280;54626;45.436;10.942;2023-07-13T06:19:36;100499.72;;;24.83
67829;BMP280;54626;45.436;10.942;2023-07-13T06:22:03;100492.25;;;24.74
67829;BMP280;54626;45.436;10.942;2023-07-13T06:24:36;100488.72;;;24.74
67829;BMP280;54626;45.436;10.942;2023-07-13T06:27:15;100477.41;;;24.74
67829;BMP280;54626;45.436;10.942;2023-07-13T06:29:54;100474.81;;;24.80
67829;BMP280;54626;45.436;10.942;2023-07-13T06:32:21;100468.09;;;24.88
67829;BMP280;54626;45.436;10.942;2023-07-13T06:34:51;100487.91;;;24.88
67829;BMP280;54626;45.436;10.942;2023-07-13T06:37:20;100482.25;;;24.88
67829;BMP280;54626;45.436;10.942;2023-07-13T06:39:47;100451.13;;;24.88
67829;BMP280;54626;45.436;10.942;2023-07-13T06:42:13;100443.28;;;24.87
67829;BMP280;54626;45.436;10.942;2023-07-13T06:44:40;100457.44;;;24.87
67829;BMP280;54626;45.436;10.942;2023-07-13T06:47:06;100470.50;;;24.79
67829;BMP280;54626;45.436;10.942;2023-07-13T06:49:33;100472.22;;;24.86
67829;BMP280;54626;45.436;10.942;2023-07-13T06:51:59;100480.81;;;24.88
67829;BMP280;54626;45.436;10.942;2023-07-13T06:54:26;100491.22;;;24.83
67829;BMP280;54626;45.436;10.942;2023-07-13T06:57:00;100507.84;;;24.75
67829;BMP280;54626;45.436;10.942;2023-07-13T06:59:27;100513.06;;;24.81
67829;BMP280;54626;45.436;10.942;2023-07-13T07:01:53;100510.53;;;24.71
67829;BMP280;54626;45.436;10.942;2023-07-13T07:04:20;100506.50;;;24.76
67829;BMP280;54626;45.436;10.942;2023-07-13T07:06:47;100502.53;;;24.83
67829;BMP280;54626;45.436;10.942;2023-07-13T07:09:14;100512.81;;;24.92
67829;BMP280;54626;45.436;10.942;2023-07-13T07:11:42;100522.16;;;24.94
67829;BMP280;54626;45.436;10.942;2023-07-13T07:14:27;100517.00;;;25.06
67829;BMP280;54626;45.436;10.942;2023-07-13T07:16:57;100523.69;;;25.15
67829;BMP280;54626;45.436;10.942;2023-07-13T07:19:25;100526.78;;;25.21
67829;BMP280;54626;45.436;10.942;2023-07-13T07:21:52;100517.22;;;25.30
67829;BMP280;54626;45.436;10.942;2023-07-13T07:24:18;100502.22;;;25.42
67829;BMP280;54626;45.436;10.942;2023-07-13T07:26:45;100506.75;;;25.49
67829;BMP280;54626;45.436;10.942;2023-07-13T07:29:15;100502.59;;;25.52
67829;BMP280;54626;45.436;10.942;2023-07-13T07:31:44;100489.28;;;25.57
67829;BMP280;54626;45.436;10.942;2023-07-13T07:34:14;100504.28;;;25.59
67829;BMP280;54626;45.436;10.942;2023-07-13T07:36:40;100497.25;;;25.80
67829;BMP280;54626;45.436;10.942;2023-07-13T07:39:10;100508.06;;;26.02
67829;BMP280;54626;45.436;10.942;2023-07-13T07:41:36;100521.31;;;26.15
67829;BMP280;54626;45.436;10.942;2023-07-13T07:44:06;100520.59;;;26.15
67829;BMP280;54626;45.436;10.942;2023-07-13T07:46:33;100523.50;;;26.17
67829;BMP280;54626;45.436;10.942;2023-07-13T07:49:00;100533.97;;;26.32
67829;BMP280;54626;45.436;10.942;2023-07-13T07:51:29;100528.16;;;26.28
67829;BMP280;54626;45.436;10.942;2023-07-13T07:53:56;100524.81;;;26.14
67829;BMP280;54626;45.436;10.942;2023-07-13T07:56:22;100533.09;;;26.08
67829;BMP280;54626;45.436;10.942;2023-07-13T07:58:52;100524.44;;;26.04
67829;BMP280;54626;45.436;10.942;2023-07-13T08:01:24;100523.97;;;25.92
67829;BMP280;54626;45.436;10.942;2023-07-13T08:03:53;100530.13;;;25.87
67829;BMP280;54626;45.436;10.942;2023-07-13T08:06:24;100545.56;;;25.64
67829;BMP280;54626;45.436;10.942;2023-07-13T08:08:53;100543.97;;;25.59
67829;BMP280;54626;45.436;10.942;2023-07-13T08:11:21;100538.38;;;25.61
67829;BMP280;54626;45.436;10.942;2023-07-13T08:13:51;100510.09;;;25.63
67829;BMP280;54626;45.436;10.942;2023-07-13T08:16:21;100496.03;;;25.65
67829;BMP280;54626;45.436;10.942;2023-07-13T08:18:48;100482.72;;;25.70
67829;BMP280;54626;45.436;10.942;2023-07-13T08:21:15;100483.53;;;25.72
67829;BMP280;54626;45.436;10.942;2023-07-13T08:23:42;100489.69;;;25.67
67829;BMP280;54626;45.436;10.942;2023-07-13T08:26:09;100472.38;;;25.59
67829;BMP280;54626;45.436;10.942;2023-07-13T08:28:35;100462.94;;;25.52
67829;BMP280;54626;45.436;10.942;2023-07-13T08:31:15;100468.75;;;25.39
67829;BMP280;54626;45.436;10.942;2023-07-13T08:33:42;100475.50;;;25.30
67829;BMP280;54626;45.436;10.942;2023-07-13T08:36:08;100475.88;;;25.23
67829;BMP280;54626;45.436;10.942;2023-07-13T08:38:35;100479.84;;;25.16
67829;BMP280;54626;45.436;10.942;2023-07-13T08:41:11;100462.06;;;25.13
67829;BMP280;54626;45.436;10.942;2023-07-13T08:43:40;100457.78;;;25.12
67829;BMP280;54626;45.436;10.942;2023-07-13T08:46:40;100487.69;;;25.00
67829;BMP280;54626;45.436;10.942;2023-07-13T08:49:19;100514.47;;;24.97
67829;BMP280;54626;45.436;10.942;2023-07-13T08:52:14;100512.91;;;24.94
67829;BMP280;54626;45.436;10.942;2023-07-13T08:54:50;100518.34;;;24.88
67829;BMP280;54626;45.436;10.942;2023-07-13T08:57:25;100504.81;;;24.87
67829;BMP280;54626;45.436;10.942;2023-07-13T08:59:56;100512.09;;;24.91
67829;BMP280;54626;45.436;10.942;2023-07-13T09:05:18;100534.06;;;25.26
67829;BMP280;54626;45.436;10.942;2023-07-13T09:10:44;100521.19;;;25.23
67829;BMP280;54626;45.436;10.942;2023-07-13T09:13:23;100525.31;;;25.20
67829;BMP280;54626;45.436;10.942;2023-07-13T09:15:53;100513.81;;;25.16
67829;BMP280;54626;45.436;10.942;2023-07-13T09:21:03;100506.78;;;25.34
67829;BMP280;54626;45.436;10.942;2023-07-13T09:23:31;100507.34;;;25.48
67829;BMP280;54626;45.436;10.942;2023-07-13T09:26:09;100508.44;;;25.56
67829;BMP280;54626;45.436;10.942;2023-07-13T09:28:41;100512.88;;;25.61
67829;BMP280;54626;45.436;10.942;2023-07-13T09:31:34;100509.50;;;25.67
67829;BMP280;54626;45.436;10.942;2023-07-13T09:34:11;100500.69;;;25.76
67829;BMP280;54626;45.436;10.942;2023-07-13T09:36:38;100508.13;;;25.85
67829;BMP280;54626;45.436;10.942;2023-07-13T09:39:29;100504.97;;;26.14
67829;BMP280;54626;45.436;10.942;2023-07-13T09:47:29;100511.66;;;26.82
67829;BMP280;54626;45.436;10.942;2023-07-13T09:50:15;100512.06;;;26.94
67829;BMP280;54626;45.436;10.942;2023-07-13T09:52:47;100508.53;;;27.17
67829;BMP280;54626;45.436;10.942;2023-07-13T09:55:30;100512.81;;;27.18
67829;BMP280;54626;45.436;10.942;2023-07-13T09:58:16;100523.94;;;27.54
67829;BMP280;54626;45.436;10.942;2023-07-13T10:00:54;100520.84;;;27.93
67829;BMP280;54626;45.436;10.942;2023-07-13T10:03:35;100527.44;;;28.25
67829;BMP280;54626;45.436;10.942;2023-07-13T10:06:22;100515.00;;;28.65
67829;BMP280;54626;45.436;10.942;2023-07-13T10:08:50;100512.31;;;29.29
67829;BMP280;54626;45.436;10.942;2023-07-13T10:11:22;100501.56;;;29.59
67829;BMP280;54626;45.436;10.942;2023-07-13T10:13:52;100497.16;;;29.87
67829;BMP280;54626;45.436;10.942;2023-07-13T10:16:24;100508.31;;;30.10
67829;BMP280;54626;45.436;10.942;2023-07-13T10:21:46;100518.28;;;30.89
67829;BMP280;54626;45.436;10.942;2023-07-13T10:24:17;100529.31;;;30.63
67829;BMP280;54626;45.436;10.942;2023-07-13T10:29:59;100529.94;;;30.58
67829;BMP280;54626;45.436;10.942;2023-07-13T10:32:43;100516.09;;;30.84
67829;BMP280;54626;45.436;10.942;2023-07-13T10:35:24;100513.19;;;31.29
67829;BMP280;54626;45.436;10.942;2023-07-13T10:38:00;100523.53;;;31.03
67829;BMP280;54626;45.436;10.942;2023-07-13T10:40:40;100531.56;;;31.16
67829;BMP280;54626;45.436;10.942;2023-07-13T10:43:20;100526.84;;;31.34
67829;BMP280;54626;45.436;10.942;2023-07-13T10:45:56;100520.25;;;31.77
67829;BMP280;54626;45.436;10.942;2023-07-13T10:48:23;100521.63;;;31.72
67829;BMP280;54626;45.436;10.942;2023-07-13T10:50:51;100520.59;;;31.49
67829;BMP280;54626;45.436;10.942;2023-07-13T11:03:19;100501.38;;;30.58
67829;BMP280;54626;45.436;10.942;2023-07-13T11:05:49;100498.00;;;30.30
67829;BMP280;54626;45.436;10.942;2023-07-13T11:08:56;100493.91;;;30.41
67829;BMP280;54626;45.436;10.942;2023-07-13T11:15:12;100481.94;;;30.51
67829;BMP280;54626;45.436;10.942;2023-07-13T11:17:50;100483.16;;;30.81
67829;BMP280;54626;45.436;10.942;2023-07-13T11:22:47;100471.63;;;30.75
67829;BMP280;54626;45.436;10.942;2023-07-13T11:25:27;100473.22;;;30.84
67829;BMP280;54626;45.436;10.942;2023-07-13T11:30:49;100474.47;;;30.73
67829;BMP280;54626;45.436;10.942;2023-07-13T11:36:07;100465.09;;;30.68
67829;BMP280;54626;45.436;10.942;2023-07-13T11:38:40;100457.47;;;30.83
67829;BMP280;54626;45.436;10.942;2023-07-13T11:41:22;100457.66;;;30.95
67829;BMP280;54626;45.436;10.942;2023-07-13T11:43:49;100451.38;;;31.61
67829;BMP280;54626;45.436;10.942;2023-07-13T11:46:23;100449.25;;;31.61
67829;BMP280;54626;45.436;10.942;2023-07-13T11:48:51;100451.41;;;31.65
67829;BMP280;54626;45.436;10.942;2023-07-13T11:51:23;100449.84;;;31.52
67829;BMP280;54626;45.436;10.942;2023-07-13T11:58:09;100444.84;;;31.52
67829;BMP280;54626;45.436;10.942;2023-07-13T12:00:37;100442.53;;;32.06
67829;BMP280;54626;45.436;10.942;2023-07-13T12:03:04;100439.72;;;32.12
67829;BMP280;54626;45.436;10.942;2023-07-13T12:05:32;100446.81;;;32.03
67829;BMP280;54626;45.436;10.942;2023-07-13T12:08:08;100433.13;;;31.93
67829;BMP280;54626;45.436;10.942;2023-07-13T12:10:56;100427.63;;;32.15
67829;BMP280;54626;45.436;10.942;2023-07-13T12:13:23;100422.06;;;31.62
67829;BMP280;54626;45.436;10.942;2023-07-13T12:15:50;100430.97;;;31.94
67829;BMP280;54626;45.436;10.942;2023-07-13T12:18:22;100432.59;;;32.11
67829;BMP280;54626;45.436;10.942;2023-07-13T12:20:50;100432.16;;;32.46
67829;BMP280;54626;45.436;10.942;2023-07-13T12:23:23;100422.88;;;32.53
67829;BMP280;54626;45.436;10.942;2023-07-13T12:25:52;100420.41;;;32.10
67829;BMP280;54626;45.436;10.942;2023-07-13T12:28:28;100414.16;;;32.35
67829;BMP280;54626;45.436;10.942;2023-07-13T12:31:18;100412.41;;;32.97
67829;BMP280;54626;45.436;10.942;2023-07-13T12:33:56;100409.47;;;32.81
67829;BMP280;54626;45.436;10.942;2023-07-13T12:36:23;100408.63;;;32.63
67829;BMP280;54626;45.436;10.942;2023-07-13T12:38:51;100417.53;;;33.22
67829;BMP280;54626;45.436;10.942;2023-07-13T12:41:17;100416.22;;;33.65
67829;BMP280;54626;45.436;10.942;2023-07-13T12:46:36;100412.69;;;33.90
67829;BMP280;54626;45.436;10.942;2023-07-13T12:49:06;100414.75;;;33.48
67829;BMP280;54626;45.436;10.942;2023-07-13T12:51:44;100406.75;;;33.11
67829;BMP280;54626;45.436;10.942;2023-07-13T12:54:19;100390.66;;;32.57
67829;BMP280;54626;45.436;10.942;2023-07-13T12:56:52;100396.75;;;33.26
67829;BMP280;54626;45.436;10.942;2023-07-13T12:59:31;100392.53;;;33.88
67829;BMP280;54626;45.436;10.942;2023-07-13T13:02:00;100384.63;;;34.42
67829;BMP280;54626;45.436;10.942;2023-07-13T13:04:27;100393.22;;;34.44
67829;BMP280;54626;45.436;10.942;2023-07-13T13:07:02;100387.53;;;34.06
67829;BMP280;54626;45.436;10.942;2023-07-13T13:09:30;100390.41;;;34.18
67829;BMP280;54626;45.436;10.942;2023-07-13T13:12:03;100390.41;;;34.12
67829;BMP280;54626;45.436;10.942;2023-07-13T13:14:29;100386.72;;;34.57
67829;BMP280;54626;45.436;10.942;2023-07-13T13:16:56;100390.34;;;34.54
67829;BMP280;54626;45.436;10.942;2023-07-13T13:19:28;100392.50;;;33.51
67829;BMP280;54626;45.436;10.942;2023-07-13T13:21:56;100391.84;;;34.07
67829;BMP280;54626;45.436;10.942;2023-07-13T13:24:35;100385.31;;;34.37
67829;BMP280;54626;45.436;10.942;2023-07-13T13:27:02;100393.91;;;33.38
67829;BMP280;54626;45.436;10.942;2023-07-13T13:29:31;100400.41;;;33.48
67829;BMP280;54626;45.436;10.942;2023-07-13T13:32:17;100393.28;;;33.87
67829;BMP280;54626;45.436;10.942;2023-07-13T13:34:45;100394.72;;;33.92
67829;BMP280;54626;45.436;10.942;2023-07-13T13:37:17;100401.88;;;34.22
67829;BMP280;54626;45.436;10.942;2023-07-13T13:39:45;100404.66;;;34.70
67829;BMP280;54626;45.436;10.942;2023-07-13T13:42:33;100404.56;;;34.93
67829;BMP280;54626;45.436;10.942;2023-07-13T13:45:04;100418.91;;;35.03
67829;BMP280;54626;45.436;10.942;2023-07-13T13:47:43;100405.31;;;34.90
67829;BMP280;54626;45.436;10.942;2023-07-13T13:50:20;100406.75;;;34.85
67829;BMP280;54626;45.436;10.942;2023-07-13T13:53:10;100412.59;;;34.59
67829;BMP280;54626;45.436;10.942;2023-07-13T13:55:37;100414.81;;;34.33
67829;BMP280;54626;45.436;10.942;2023-07-13T13:58:06;100417.69;;;34.33
67829;BMP280;54626;45.436;10.942;2023-07-13T14:00:32;100416.25;;;33.91
67829;BMP280;54626;45.436;10.942;2023-07-13T14:03:04;100423.41;;;33.62
67829;BMP280;54626;45.436;10.942;2023-07-13T14:05:34;100424.03;;;33.29
67829;BMP280;54626;45.436;10.942;2023-07-13T14:08:01;100420.44;;;33.32
67829;BMP280;54626;45.436;10.942;2023-07-13T14:10:28;100423.06;;;32.81
67829;BMP280;54626;45.436;10.942;2023-07-13T14:12:56;100421.56;;;32.72
67829;BMP280;54626;45.436;10.942;2023-07-13T14:15:27;100424.78;;;32.19
67829;BMP280;54626;45.436;10.942;2023-07-13T14:17:54;100419.66;;;32.10
67829;BMP280;54626;45.436;10.942;2023-07-13T14:20:23;100426.31;;;32.30
67829;BMP280;54626;45.436;10.942;2023-07-13T14:22:51;100434.84;;;32.24
67829;BMP280;54626;45.436;10.942;2023-07-13T14:25:20;100438.91;;;31.95
67829;BMP280;54626;45.436;10.942;2023-07-13T14:27:49;100442.53;;;32.04
67829;BMP280;54626;45.436;10.942;2023-07-13T14:30:20;100444.09;;;32.19
67829;BMP280;54626;45.436;10.942;2023-07-13T14:32:47;100436.22;;;32.19
67829;BMP280;54626;45.436;10.942;2023-07-13T14:35:17;100424.09;;;32.25
67829;BMP280;54626;45.436;10.942;2023-07-13T14:37:46;100421.44;;;32.52
67829;BMP280;54626;45.436;10.942;2023-07-13T14:40:15;100415.38;;;33.21
67829;BMP280;54626;45.436;10.942;2023-07-13T14:42:42;100414.09;;;33.93
67829;BMP280;54626;45.436;10.942;2023-07-13T14:45:17;100427.72;;;34.52
67829;BMP280;54626;45.436;10.942;2023-07-13T14:48:05;100435.59;;;34.53
67829;BMP280;54626;45.436;10.942;2023-07-13T14:50:32;100444.19;;;34.75
67829;BMP280;54626;45.436;10.942;2023-07-13T14:53:01;100450.72;;;34.52
67829;BMP280;54626;45.436;10.942;2023-07-13T14:55:28;100439.91;;;34.60
67829;BMP280;54626;45.436;10.942;2023-07-13T14:57:54;100445.53;;;35.02
67829;BMP280;54626;45.436;10.942;2023-07-13T15:00:21;100445.47;;;35.16
67829;BMP280;54626;45.436;10.942;2023-07-13T15:02:52;100432.47;;;35.27
67829;BMP280;54626;45.436;10.942;2023-07-13T15:05:23;100444.81;;;35.07
67829;BMP280;54626;45.436;10.942;2023-07-13T15:07:52;100452.00;;;35.08
67829;BMP280;54626;45.436;10.942;2023-07-13T15:10:24;100458.50;;;34.89